createdAt,value
2023-03-08T00:01:46.927Z,1.64
2023-03-08T00:04:13.514Z,1.62
2023-03-08T00:06:41.354Z,1.63
2023-03-08T00:09:07.881Z,1.63
2023-03-08T00:11:34.362Z,1.62
2023-03-08T00:14:00.985Z,1.62
2023-03-08T00:16:27.548Z,1.60
2023-03-08T00:18:54.728Z,1.61
2023-03-08T00:21:21.342Z,1.63
2023-03-08T00:23:52.407Z,1.62
2023-03-08T00:26:18.870Z,1.62
2023-03-08T00:28:45.925Z,1.62
2023-03-08T00:31:13.656Z,1.60
2023-03-08T00:33:40.426Z,1.61
2023-03-08T00:36:13.017Z,1.61
2023-03-08T00:38:39.731Z,1.62
2023-03-08T00:41:07.917Z,1.62
2023-03-08T00:43:34.378Z,1.65
2023-03-08T00:46:00.914Z,1.64
2023-03-08T00:48:27.884Z,1.66
2023-03-08T00:50:54.409Z,1.66
2023-03-08T00:53:21.151Z,1.66
2023-03-08T00:55:49.303Z,1.66
2023-03-08T00:58:17.459Z,1.66
2023-03-08T01:00:44.467Z,1.65
2023-03-08T01:03:11.086Z,1.66
2023-03-08T01:05:39.888Z,1.68
2023-03-08T01:08:06.430Z,1.66
2023-03-08T01:10:32.955Z,1.65
2023-03-08T01:12:59.450Z,1.65
2023-03-08T01:15:27.304Z,1.67
2023-03-08T01:17:53.759Z,1.67
2023-03-08T01:20:20.230Z,1.65
2023-03-08T01:22:46.719Z,1.65
2023-03-08T01:25:13.380Z,1.66
2023-03-08T01:27:39.887Z,1.67
2023-03-08T01:30:07.405Z,1.67
2023-03-08T01:32:35.373Z,1.64
2023-03-08T01:35:01.880Z,1.61
2023-03-08T01:37:28.376Z,1.62
2023-03-08T01:39:54.891Z,1.62
2023-03-08T01:42:21.361Z,1.61
2023-03-08T01:44:53.462Z,1.63
2023-03-08T01:47:21.386Z,1.64
2023-03-08T01:49:50.341Z,1.65
2023-03-08T01:52:19.621Z,1.66
2023-03-08T01:54:48.208Z,1.68
2023-03-08T01:57:18.025Z,1.68
2023-03-08T01:59:46.609Z,1.67
2023-03-08T02:02:13.264Z,1.67
2023-03-08T02:04:40.734Z,1.67
2023-03-08T02:07:08.562Z,1.67
2023-03-08T02:09:35.057Z,1.66
2023-03-08T02:12:05.954Z,1.65
2023-03-08T02:14:32.517Z,1.66
2023-03-08T02:16:59.140Z,1.67
2023-03-08T02:19:33.108Z,1.67
2023-03-08T02:22:06.962Z,1.67
2023-03-08T02:24:34.612Z,1.63
2023-03-08T02:27:06.404Z,1.66
2023-03-08T02:29:33.204Z,1.66
2023-03-08T02:31:59.672Z,1.66
2023-03-08T02:34:26.206Z,1.66
2023-03-08T02:36:52.736Z,1.66
2023-03-08T02:39:19.245Z,1.66
2023-03-08T02:41:47.073Z,1.65
2023-03-08T02:44:13.601Z,1.64
2023-03-08T02:46:40.138Z,1.63
2023-03-08T02:49:06.811Z,1.63
2023-03-08T02:51:33.322Z,1.63
2023-03-08T02:53:59.880Z,1.62
2023-03-08T02:56:26.430Z,1.63
2023-03-08T02:58:54.505Z,1.63
2023-03-08T03:01:21.057Z,1.61
2023-03-08T03:03:47.531Z,1.63
2023-03-08T03:06:14.972Z,1.62
2023-03-08T03:08:41.475Z,1.60
2023-03-08T03:11:11.876Z,1.60
2023-03-08T03:13:38.329Z,1.60
2023-03-08T03:16:08.079Z,1.58
2023-03-08T03:18:34.619Z,1.60
2023-03-08T03:21:03.398Z,1.59
2023-03-08T03:23:29.871Z,1.59
2023-03-08T03:25:56.418Z,1.60
2023-03-08T03:28:23.020Z,1.59
2023-03-08T03:30:49.552Z,1.60
2023-03-08T03:33:17.394Z,1.60
2023-03-08T03:35:43.931Z,1.57
2023-03-08T03:38:10.422Z,1.55
2023-03-08T03:40:36.898Z,1.56
2023-03-08T03:43:03.521Z,1.55
2023-03-08T03:45:30.027Z,1.57
2023-03-08T03:47:56.523Z,1.56
2023-03-08T03:50:24.368Z,1.58
2023-03-08T03:52:50.894Z,1.54
2023-03-08T03:55:17.544Z,1.57
2023-03-08T03:57:44.018Z,1.58
2023-03-08T04:00:11.615Z,1.60
2023-03-08T04:02:38.106Z,1.63
2023-03-08T04:05:05.355Z,1.61
2023-03-08T04:07:34.149Z,1.62
2023-03-08T04:10:00.579Z,1.61
2023-03-08T04:12:27.072Z,1.61
2023-03-08T04:14:53.710Z,1.60
2023-03-08T04:17:20.196Z,1.61
2023-03-08T04:19:48.544Z,1.61
2023-03-08T04:22:15.032Z,1.57
2023-03-08T04:24:42.871Z,1.58
2023-03-08T04:27:09.324Z,1.61
2023-03-08T04:29:35.788Z,1.59
2023-03-08T04:32:02.312Z,1.61
2023-03-08T04:34:28.788Z,1.63
2023-03-08T04:36:55.444Z,1.65
2023-03-08T04:39:21.959Z,1.63
2023-03-08T04:41:49.777Z,1.62
2023-03-08T04:44:16.281Z,1.62
2023-03-08T04:46:42.835Z,1.59
2023-03-08T04:49:09.363Z,1.62
2023-03-08T04:51:35.846Z,1.63
2023-03-08T04:54:02.364Z,1.60
2023-03-08T04:56:28.856Z,1.60
2023-03-08T04:58:56.693Z,1.59
2023-03-08T05:01:23.758Z,1.56
2023-03-08T05:03:51.863Z,1.50
2023-03-08T05:06:19.590Z,1.50
2023-03-08T05:08:46.111Z,1.49
2023-03-08T05:11:18.070Z,1.46
2023-03-08T05:13:44.551Z,1.45
2023-03-08T05:16:12.774Z,1.44
2023-03-08T05:18:39.363Z,1.43
2023-03-08T05:21:07.786Z,1.45
2023-03-08T05:23:34.759Z,1.40
2023-03-08T05:26:03.678Z,1.35
2023-03-08T05:28:32.371Z,1.30
2023-03-08T05:31:02.651Z,1.31
2023-03-08T05:33:30.510Z,1.28
2023-03-08T05:35:57.417Z,1.27
2023-03-08T05:38:24.903Z,1.20
2023-03-08T05:40:51.558Z,1.14
2023-03-08T05:43:18.459Z,1.11
2023-03-08T05:45:54.657Z,1.09
2023-03-08T05:48:21.298Z,1.09
2023-03-08T05:50:49.114Z,1.05
2023-03-08T05:53:15.606Z,1.01
2023-03-08T05:55:42.088Z,1.01
2023-03-08T05:58:08.587Z,1.00
2023-03-08T06:00:35.126Z,0.99
2023-03-08T06:03:01.917Z,0.97
2023-03-08T06:05:28.433Z,0.98
2023-03-08T06:07:56.317Z,0.90
2023-03-08T06:10:23.075Z,0.86
2023-03-08T06:12:49.522Z,0.83
2023-03-08T06:15:16.803Z,0.85
2023-03-08T06:17:43.310Z,0.83
2023-03-08T06:20:10.911Z,0.87
2023-03-08T06:22:37.414Z,0.88
2023-03-08T06:25:06.403Z,0.87
2023-03-08T06:27:32.922Z,0.85
2023-03-08T06:29:59.405Z,0.87
2023-03-08T06:32:25.943Z,0.85
2023-03-08T06:34:52.449Z,0.85
2023-03-08T06:37:18.975Z,0.85
2023-03-08T06:39:45.641Z,0.82
2023-03-08T06:42:13.485Z,0.73
2023-03-08T06:44:40.133Z,0.72
2023-03-08T06:47:06.757Z,0.78
2023-03-08T06:49:34.458Z,0.73
2023-03-08T06:52:00.936Z,0.73
2023-03-08T06:54:27.696Z,0.77
2023-03-08T06:56:54.181Z,0.70
2023-03-08T06:59:22.026Z,0.71
2023-03-08T07:01:48.525Z,0.75
2023-03-08T07:04:15.071Z,0.77
2023-03-08T07:06:41.582Z,0.77
2023-03-08T07:09:08.252Z,0.76
2023-03-08T07:11:34.753Z,0.73
2023-03-08T07:14:01.313Z,0.75
2023-03-08T07:16:29.131Z,0.79
2023-03-08T07:18:55.612Z,0.77
2023-03-08T07:21:22.148Z,0.76
2023-03-08T07:23:50.995Z,0.75
2023-03-08T07:26:17.495Z,0.73
2023-03-08T07:28:43.953Z,0.77
2023-03-08T07:31:10.736Z,0.76
2023-03-08T07:33:38.634Z,0.75
2023-03-08T07:36:06.033Z,0.73
2023-03-08T07:38:32.610Z,0.73
2023-03-08T07:40:59.148Z,0.68
2023-03-08T07:43:25.741Z,0.69
2023-03-08T07:45:52.289Z,0.71
2023-03-08T07:48:18.779Z,0.70
2023-03-08T07:50:46.688Z,0.69
2023-03-08T07:53:13.190Z,0.67
2023-03-08T07:55:39.642Z,0.74
2023-03-08T07:58:06.170Z,0.68
2023-03-08T08:00:32.750Z,0.72
2023-03-08T08:02:59.223Z,0.73
2023-03-08T08:05:25.870Z,0.70
2023-03-08T08:07:53.870Z,0.69
2023-03-08T08:10:20.344Z,0.69
2023-03-08T08:12:46.927Z,0.66
2023-03-08T08:15:13.531Z,0.69
2023-03-08T08:17:40.051Z,0.72
2023-03-08T08:20:07.283Z,0.71
2023-03-08T08:22:35.487Z,0.67
2023-03-08T08:25:04.561Z,0.69
2023-03-08T08:27:31.038Z,0.65
2023-03-08T08:29:57.581Z,0.72
2023-03-08T08:32:24.214Z,0.71
2023-03-08T08:34:50.796Z,0.76
2023-03-08T08:37:17.271Z,0.79
2023-03-08T08:39:43.814Z,0.81
2023-03-08T08:42:11.648Z,0.83
2023-03-08T08:44:38.239Z,0.84
2023-03-08T08:47:04.900Z,0.85
2023-03-08T08:49:31.417Z,0.87
2023-03-08T08:51:57.904Z,0.79
2023-03-08T08:54:24.481Z,0.83
2023-03-08T08:56:51.011Z,0.92
2023-03-08T08:59:18.909Z,0.83
2023-03-08T09:01:45.357Z,0.82
2023-03-08T09:04:12.397Z,0.77
2023-03-08T09:06:39.464Z,0.77
2023-03-08T09:09:06.870Z,0.78
2023-03-08T09:11:39.701Z,0.82
2023-03-08T09:14:11.638Z,0.78
2023-03-08T09:16:39.558Z,0.96
2023-03-08T09:19:06.219Z,1.13
2023-03-08T09:21:33.518Z,1.20
2023-03-08T09:24:02.279Z,1.27
2023-03-08T09:26:29.725Z,1.31
2023-03-08T09:28:56.213Z,1.27
2023-03-08T09:31:22.745Z,1.20
2023-03-08T09:33:51.683Z,1.18
2023-03-08T09:36:19.077Z,1.16
2023-03-08T09:38:47.596Z,1.13
2023-03-08T09:41:30.189Z,1.08
2023-03-08T09:44:07.168Z,1.21
2023-03-08T09:46:38.024Z,1.23
2023-03-08T09:49:13.281Z,1.28
2023-03-08T09:51:46.527Z,1.30
2023-03-08T09:54:16.005Z,1.36
2023-03-08T09:56:46.500Z,1.35
2023-03-08T09:59:19.189Z,1.52
2023-03-08T10:01:56.620Z,1.58
2023-03-08T10:04:34.476Z,1.65
2023-03-08T10:07:13.881Z,1.63
2023-03-08T10:09:44.576Z,1.63
2023-03-08T10:12:21.680Z,1.67
2023-03-08T10:14:50.391Z,1.75
2023-03-08T10:17:20.297Z,1.74
2023-03-08T10:19:54.173Z,1.65
2023-03-08T10:22:23.065Z,1.57
2023-03-08T10:24:56.118Z,1.72
2023-03-08T10:27:25.627Z,1.72
2023-03-08T10:29:53.873Z,1.88
2023-03-08T10:32:20.677Z,1.83
2023-03-08T10:34:48.742Z,1.89
2023-03-08T10:37:16.282Z,1.74
2023-03-08T10:39:50.565Z,1.67
2023-03-08T10:42:17.298Z,1.78
2023-03-08T10:44:47.213Z,1.77
2023-03-08T10:47:22.410Z,1.75
2023-03-08T10:50:03.689Z,1.71
2023-03-08T10:52:30.215Z,1.73
2023-03-08T10:55:01.024Z,1.73
2023-03-08T10:57:28.101Z,1.73
2023-03-08T10:59:58.853Z,1.67
2023-03-08T11:02:25.348Z,1.65
2023-03-08T11:04:54.741Z,1.82
2023-03-08T11:07:23.619Z,1.75
2023-03-08T11:09:50.447Z,1.74
2023-03-08T11:12:24.252Z,1.74
2023-03-08T11:14:51.152Z,1.81
2023-03-08T11:17:21.960Z,1.80
2023-03-08T11:19:59.066Z,1.77
2023-03-08T11:22:38.693Z,1.70
2023-03-08T11:25:32.129Z,1.83
2023-03-08T11:28:23.766Z,1.83
2023-03-08T11:31:00.611Z,1.71
2023-03-08T11:34:08.846Z,1.81
2023-03-08T11:36:43.951Z,1.86
2023-03-08T11:39:16.757Z,1.76
2023-03-08T11:41:53.363Z,1.87
2023-03-08T11:44:41.267Z,1.89
2023-03-08T11:47:33.180Z,1.84
2023-03-08T11:50:07.579Z,1.81
2023-03-08T11:52:44.565Z,1.77
2023-03-08T11:55:28.514Z,1.81
2023-03-08T11:58:01.462Z,1.82
2023-03-08T12:00:30.657Z,1.86
2023-03-08T12:03:01.106Z,1.85
2023-03-08T12:05:30.079Z,1.91
2023-03-08T12:08:02.147Z,2.02
2023-03-08T12:10:34.316Z,2.11
2023-03-08T12:13:06.367Z,2.07
2023-03-08T12:15:39.450Z,2.12
2023-03-08T12:18:14.400Z,2.15
2023-03-08T12:20:43.429Z,2.12
2023-03-08T12:23:20.576Z,2.11
2023-03-08T12:25:51.227Z,2.10
2023-03-08T12:28:23.472Z,2.06
2023-03-08T12:31:02.939Z,1.93
2023-03-08T12:33:31.205Z,1.98
2023-03-08T12:35:59.568Z,2.06
2023-03-08T12:38:34.015Z,1.99
2023-03-08T12:41:01.401Z,2.03
2023-03-08T12:43:30.937Z,1.98
2023-03-08T12:46:03.976Z,2.02
2023-03-08T12:48:32.548Z,1.97
2023-03-08T12:51:03.780Z,1.95
2023-03-08T12:53:39.309Z,2.00
2023-03-08T12:56:23.121Z,2.11
2023-03-08T12:58:53.202Z,2.14
2023-03-08T13:01:33.820Z,2.12
2023-03-08T13:04:00.792Z,2.16
2023-03-08T13:06:53.314Z,2.25
2023-03-08T13:09:27.999Z,2.15
2023-03-08T13:12:01.434Z,2.18
2023-03-08T13:14:39.185Z,2.21
2023-03-08T13:17:33.808Z,2.15
2023-03-08T13:20:04.553Z,2.26
2023-03-08T13:22:38.140Z,2.38
2023-03-08T13:25:15.027Z,2.46
2023-03-08T13:27:51.708Z,2.33
2023-03-08T13:30:24.329Z,2.38
2023-03-08T13:32:51.373Z,2.37
2023-03-08T13:35:18.583Z,2.36
2023-03-08T13:37:52.185Z,2.24
2023-03-08T13:40:21.721Z,2.14
2023-03-08T13:42:55.390Z,2.13
2023-03-08T13:45:22.090Z,2.19
2023-03-08T13:47:49.264Z,2.15
2023-03-08T13:50:19.856Z,2.28
2023-03-08T13:52:46.992Z,2.29
2023-03-08T13:55:18.964Z,2.24
2023-03-08T13:57:50.608Z,2.24
2023-03-08T14:00:25.367Z,2.26
2023-03-08T14:02:52.710Z,2.24
2023-03-08T14:05:21.668Z,2.29
2023-03-08T14:07:56.774Z,2.25
2023-03-08T14:10:28.467Z,2.31
2023-03-08T14:12:56.569Z,2.27
2023-03-08T14:15:23.277Z,2.30
2023-03-08T14:17:51.359Z,2.37
2023-03-08T14:20:20.306Z,2.33
2023-03-08T14:22:49.055Z,2.34
2023-03-08T14:25:25.163Z,2.31
2023-03-08T14:27:51.768Z,2.30
2023-03-08T14:30:21.906Z,2.26
2023-03-08T14:33:03.655Z,2.21
2023-03-08T14:35:32.740Z,2.23
2023-03-08T14:38:00.505Z,2.26
2023-03-08T14:40:30.886Z,2.23
2023-03-08T14:42:59.026Z,2.23
2023-03-08T14:45:32.281Z,2.26
2023-03-08T14:48:00.337Z,2.31
2023-03-08T14:50:28.268Z,2.26
2023-03-08T14:52:56.615Z,2.35
2023-03-08T14:55:25.773Z,2.34
2023-03-08T14:57:54.732Z,2.32
2023-03-08T15:00:23.651Z,2.31
2023-03-08T15:02:51.568Z,2.22
2023-03-08T15:05:28.461Z,2.22
2023-03-08T15:07:57.417Z,2.17
2023-03-08T15:10:27.785Z,2.14
2023-03-08T15:12:54.456Z,2.16
2023-03-08T15:15:21.631Z,2.12
2023-03-08T15:17:48.584Z,2.09
2023-03-08T15:20:17.494Z,2.15
2023-03-08T15:22:47.182Z,2.14
2023-03-08T15:25:16.441Z,2.14
2023-03-08T15:27:42.974Z,2.12
2023-03-08T15:30:18.171Z,2.14
2023-03-08T15:32:44.855Z,2.11
2023-03-08T15:35:11.393Z,2.11
2023-03-08T15:37:39.528Z,2.05
2023-03-08T15:40:10.991Z,2.09
2023-03-08T15:42:37.607Z,2.11
2023-03-08T15:45:04.663Z,2.10
2023-03-08T15:47:31.155Z,2.09
2023-03-08T15:49:57.655Z,2.10
2023-03-08T15:52:30.071Z,2.11
2023-03-08T15:54:58.841Z,2.10
2023-03-08T15:57:25.368Z,2.10
2023-03-08T15:59:51.877Z,2.12
2023-03-08T16:02:20.082Z,2.05
2023-03-08T16:04:46.779Z,2.09
2023-03-08T16:07:13.560Z,2.06
2023-03-08T16:09:40.350Z,2.09
2023-03-08T16:12:08.331Z,2.06
2023-03-08T16:14:35.338Z,2.03
2023-03-08T16:17:01.942Z,2.07
2023-03-08T16:19:31.448Z,2.07
2023-03-08T16:21:57.996Z,2.06
2023-03-08T16:24:24.655Z,2.07
2023-03-08T16:26:51.149Z,2.10
2023-03-08T16:29:19.029Z,2.04
2023-03-08T16:31:45.539Z,2.02
2023-03-08T16:34:12.324Z,2.01
2023-03-08T16:36:38.883Z,1.94
2023-03-08T16:39:05.975Z,1.94
2023-03-08T16:41:33.369Z,1.91
2023-03-08T16:43:59.912Z,1.79
2023-03-08T16:46:27.977Z,1.82
2023-03-08T16:48:54.995Z,1.79
2023-03-08T16:51:24.413Z,1.75
2023-03-08T16:53:51.244Z,1.73
2023-03-08T16:56:18.502Z,1.71
2023-03-08T16:58:45.225Z,1.73
2023-03-08T17:01:12.070Z,1.70
2023-03-08T17:03:39.955Z,1.71
2023-03-08T17:06:07.294Z,1.64
2023-03-08T17:08:33.902Z,1.63
2023-03-08T17:11:00.383Z,1.64
2023-03-08T17:13:26.975Z,1.61
2023-03-08T17:15:53.577Z,1.62
2023-03-08T17:18:20.070Z,1.60
2023-03-08T17:20:47.848Z,1.61
2023-03-08T17:23:14.348Z,1.61
2023-03-08T17:25:41.303Z,1.57
2023-03-08T17:28:09.332Z,1.56
2023-03-08T17:30:36.339Z,1.60
2023-03-08T17:33:02.838Z,1.60
2023-03-08T17:35:29.463Z,1.65
2023-03-08T17:37:57.312Z,1.64
2023-03-08T17:40:23.862Z,1.63
2023-03-08T17:42:50.389Z,1.63
2023-03-08T17:45:17.944Z,1.63
2023-03-08T17:47:44.774Z,1.62
2023-03-08T17:50:12.475Z,1.66
2023-03-08T17:52:39.141Z,1.64
2023-03-08T17:55:09.366Z,1.64
2023-03-08T17:57:36.773Z,1.62
2023-03-08T18:00:05.151Z,1.61
2023-03-08T18:02:32.061Z,1.61
2023-03-08T18:04:58.617Z,1.60
2023-03-08T18:07:25.130Z,1.59
2023-03-08T18:09:51.605Z,1.62
2023-03-08T18:12:19.411Z,1.61
2023-03-08T18:14:45.881Z,1.63
2023-03-08T18:17:12.591Z,1.61
2023-03-08T18:19:39.089Z,1.54
2023-03-08T18:22:05.545Z,1.50
2023-03-08T18:24:32.012Z,1.51
2023-03-08T18:26:58.479Z,1.50
2023-03-08T18:29:26.325Z,1.51
2023-03-08T18:31:52.900Z,1.55
2023-03-08T18:34:19.354Z,1.49
2023-03-08T18:36:45.802Z,1.51
2023-03-08T18:39:13.364Z,1.50
2023-03-08T18:41:40.147Z,1.48
2023-03-08T18:44:06.941Z,1.46
2023-03-08T18:46:34.889Z,1.50
2023-03-08T18:49:03.261Z,1.52
2023-03-08T18:51:31.024Z,1.47
2023-03-08T18:53:58.920Z,1.40
2023-03-08T18:56:25.724Z,1.42
2023-03-08T18:58:52.367Z,1.45
2023-03-08T19:01:19.134Z,1.42
2023-03-08T19:03:47.059Z,1.39
2023-03-08T19:06:14.581Z,1.46
2023-03-08T19:08:41.168Z,1.46
2023-03-08T19:11:12.752Z,1.41
2023-03-08T19:13:39.260Z,1.42
2023-03-08T19:16:06.609Z,1.45
2023-03-08T19:18:33.406Z,1.43
2023-03-08T19:21:01.228Z,1.41
2023-03-08T19:23:29.365Z,1.43
2023-03-08T19:25:55.851Z,1.44
2023-03-08T19:28:22.429Z,1.41
2023-03-08T19:30:48.929Z,1.41
2023-03-08T19:33:29.626Z,1.39
2023-03-08T19:35:56.871Z,1.40
2023-03-08T19:38:24.757Z,1.41
2023-03-08T19:40:51.310Z,1.43
2023-03-08T19:43:17.789Z,1.42
2023-03-08T19:45:48.439Z,1.44
2023-03-08T19:48:16.302Z,1.45
2023-03-08T19:50:44.708Z,1.39
2023-03-08T19:53:11.164Z,1.42
2023-03-08T19:55:48.164Z,1.44
2023-03-08T19:58:14.724Z,1.39
2023-03-08T20:00:41.219Z,1.39
2023-03-08T20:03:07.674Z,1.40
2023-03-08T20:05:39.826Z,1.39
2023-03-08T20:08:06.324Z,1.39
2023-03-08T20:10:32.874Z,1.37
2023-03-08T20:13:00.673Z,1.36
2023-03-08T20:15:27.658Z,1.35
2023-03-08T20:17:54.205Z,1.39
2023-03-08T20:20:21.865Z,1.37
2023-03-08T20:22:48.663Z,1.35
2023-03-08T20:25:15.347Z,1.33
2023-03-08T20:27:42.688Z,1.37
2023-03-08T20:30:12.244Z,1.38
2023-03-08T20:32:38.807Z,1.41
2023-03-08T20:35:06.536Z,1.38
2023-03-08T20:37:33.207Z,1.38
2023-03-08T20:39:59.709Z,1.39
2023-03-08T20:42:26.300Z,1.41
2023-03-08T20:44:52.751Z,1.42
2023-03-08T20:47:20.530Z,1.39
2023-03-08T20:49:47.045Z,1.38
2023-03-08T20:52:13.544Z,1.39
2023-03-08T20:54:40.001Z,1.39
2023-03-08T20:57:06.477Z,1.46
2023-03-08T20:59:32.991Z,1.44
2023-03-08T21:01:59.510Z,1.42
2023-03-08T21:04:27.353Z,1.44
2023-03-08T21:06:53.855Z,1.41
2023-03-08T21:09:20.585Z,1.41
2023-03-08T21:11:47.090Z,1.45
2023-03-08T21:14:13.632Z,1.41
2023-03-08T21:16:40.110Z,1.41
2023-03-08T21:19:06.590Z,1.39
2023-03-08T21:21:36.374Z,1.39
2023-03-08T21:24:04.404Z,1.39
2023-03-08T21:26:31.939Z,1.36
2023-03-08T21:29:00.176Z,1.37
2023-03-08T21:31:26.675Z,1.31
2023-03-08T21:33:53.540Z,1.32
2023-03-08T21:36:20.461Z,1.31
2023-03-08T21:38:52.522Z,1.35
2023-03-08T21:41:20.597Z,1.36
2023-03-08T21:43:47.208Z,1.36
2023-03-08T21:46:13.932Z,1.33
2023-03-08T21:48:40.465Z,1.35
2023-03-08T21:51:07.977Z,1.34
2023-03-08T21:53:34.944Z,1.35
2023-03-08T21:56:05.471Z,1.34
2023-03-08T21:58:31.919Z,1.36
2023-03-08T22:00:58.412Z,1.37
2023-03-08T22:03:25.104Z,1.37
2023-03-08T22:05:51.598Z,1.38
2023-03-08T22:08:18.066Z,1.41
2023-03-08T22:10:44.582Z,1.44
2023-03-08T22:13:12.357Z,1.49
2023-03-08T22:15:38.801Z,1.51
2023-03-08T22:18:05.388Z,1.51
2023-03-08T22:20:31.918Z,1.51
2023-03-08T22:22:58.373Z,1.50
2023-03-08T22:25:24.884Z,1.50
2023-03-08T22:27:51.378Z,1.50
2023-03-08T22:30:19.422Z,1.43
2023-03-08T22:32:46.035Z,1.45
2023-03-08T22:35:12.835Z,1.42
2023-03-08T22:37:39.845Z,1.38
2023-03-08T22:40:07.981Z,1.41
2023-03-08T22:42:34.663Z,1.44
2023-03-08T22:45:01.184Z,1.42
2023-03-08T22:47:29.273Z,1.40
2023-03-08T22:49:55.755Z,1.41
2023-03-08T22:52:22.537Z,1.36
2023-03-08T22:54:49.064Z,1.42
2023-03-08T22:57:15.570Z,1.44
2023-03-08T22:59:42.372Z,1.41
2023-03-08T23:02:08.883Z,1.50
2023-03-08T23:04:36.974Z,1.45
2023-03-08T23:07:03.784Z,1.43
2023-03-08T23:09:30.327Z,1.36
2023-03-08T23:11:56.832Z,1.42
2023-03-08T23:14:23.463Z,1.48
2023-03-08T23:16:50.063Z,1.49
2023-03-08T23:19:21.213Z,1.50
2023-03-08T23:21:49.144Z,1.47
2023-03-08T23:24:16.167Z,1.45
2023-03-08T23:26:43.205Z,1.55
2023-03-08T23:29:09.743Z,1.46
2023-03-08T23:31:37.340Z,1.37
2023-03-08T23:34:05.348Z,1.40
2023-03-08T23:36:33.017Z,1.40
2023-03-08T23:39:01.233Z,1.37
2023-03-08T23:41:28.224Z,1.41
2023-03-08T23:43:56.182Z,1.46
2023-03-08T23:46:23.523Z,1.41
2023-03-08T23:48:50.596Z,1.49
2023-03-08T23:51:19.298Z,1.48
2023-03-08T23:53:48.110Z,1.46
2023-03-08T23:56:20.189Z,1.50
2023-03-08T23:58:48.465Z,1.49
